Time;durP1;ratioP1;P1;durP2;ratioP2;P2;SDS_P1;SDS_P2;PMS_P1;PMS_P2;Temp;Humidity;BMP_temperature;BMP_pressure;BME280_temperature;BME280_humidity;BME280_pressure;Samples;Min_cycle;Max_cycle;Signal;HPM_P1;HPM_P2
2021/05/27 00:01:05;;;;;;;1999.90;999.90;;;11.20;99.90;;;;;;5033677;28;20199;-68
2021/05/27 00:03:31;;;;;;;1999.90;999.90;;;11.20;99.90;;;;;;5034692;28;20198;-68
2021/05/27 00:05:56;;;;;;;1999.90;999.90;;;11.20;99.90;;;;;;5033935;28;20207;-67
2021/05/27 00:08:22;;;;;;;1999.90;999.90;;;11.20;99.90;;;;;;5033900;28;20319;-68
2021/05/27 00:10:48;;;;;;;1999.90;999.90;;;11.20;99.90;;;;;;5033573;28;20180;-68
2021/05/27 00:13:14;;;;;;;1999.90;999.90;;;11.20;99.90;;;;;;5033155;28;20172;-67
2021/05/27 00:15:40;;;;;;;1999.90;999.90;;;11.20;99.90;;;;;;5032743;28;20402;-68
2021/05/27 00:18:06;;;;;;;1999.90;999.90;;;11.20;99.90;;;;;;5033098;28;20251;-67
2021/05/27 00:20:31;;;;;;;1999.90;999.90;;;11.30;99.90;;;;;;5033496;28;20470;-68
2021/05/27 00:22:57;;;;;;;1999.90;999.90;;;11.20;99.90;;;;;;5036715;28;20199;-68
2021/05/27 00:25:22;;;;;;;1999.90;999.90;;;11.20;99.90;;;;;;5036702;28;20282;-67
2021/05/27 00:27:48;;;;;;;1999.90;999.90;;;11.20;99.90;;;;;;5037036;28;20172;-67
2021/05/27 00:30:16;;;;;;;1999.90;999.90;;;11.20;99.90;;;;;;5036263;28;20199;-68
2021/05/27 00:32:42;;;;;;;1999.90;999.90;;;11.20;99.90;;;;;;5036996;28;20886;-68
2021/05/27 00:35:08;;;;;;;1999.90;999.90;;;11.20;99.90;;;;;;5037043;28;20413;-68
2021/05/27 00:37:34;;;;;;;1999.90;999.90;;;11.20;99.90;;;;;;5037196;28;20187;-67
2021/05/27 00:40:00;;;;;;;1999.90;999.90;;;11.20;99.90;;;;;;5036866;28;20426;-68
2021/05/27 00:42:26;;;;;;;1999.90;999.90;;;11.20;99.90;;;;;;5036861;28;20171;-67
2021/05/27 00:45:03;;;;;;;1999.90;999.90;;;11.20;99.90;;;;;;5036449;28;20585;-68
2021/05/27 00:47:29;;;;;;;1999.90;999.90;;;11.20;99.90;;;;;;5036454;28;20207;-67
2021/05/27 00:49:55;;;;;;;1999.90;999.90;;;11.20;99.90;;;;;;5036528;28;20430;-68
2021/05/27 00:52:21;;;;;;;1999.90;999.90;;;11.20;99.90;;;;;;5036692;28;20463;-67
2021/05/27 00:54:49;;;;;;;1999.90;999.90;;;11.20;99.90;;;;;;5036510;28;20403;-68
2021/05/27 00:57:29;;;;;;;1999.90;999.90;;;11.30;99.90;;;;;;5036498;28;20413;-68
2021/05/27 00:59:55;;;;;;;1999.90;999.90;;;11.20;99.90;;;;;;5036264;28;20516;-67
2021/05/27 01:02:20;;;;;;;1999.90;999.90;;;11.20;99.90;;;;;;5036295;28;20453;-68
2021/05/27 01:04:46;;;;;;;1999.90;999.90;;;11.20;99.90;;;;;;5036228;28;20201;-67
2021/05/27 01:07:13;;;;;;;1999.90;999.90;;;11.10;99.90;;;;;;5036241;28;20210;-67
2021/05/27 01:09:41;;;;;;;1999.90;999.90;;;11.10;99.90;;;;;;5036557;28;20166;-67
2021/05/27 01:12:07;;;;;;;1999.90;999.90;;;11.10;99.90;;;;;;5036009;28;20398;-67
2021/05/27 01:17:17;;;;;;;1999.90;999.90;;;11.10;99.90;;;;;;5036319;28;20413;-68
2021/05/27 01:19:43;;;;;;;1999.90;999.90;;;11.20;99.90;;;;;;5036258;28;20419;-67
2021/05/27 01:22:08;;;;;;;1999.90;999.90;;;11.10;99.90;;;;;;5035577;28;20165;-67
2021/05/27 01:24:34;;;;;;;1999.90;999.90;;;11.10;99.90;;;;;;5036967;28;20656;-67
2021/05/27 01:27:00;;;;;;;1999.90;999.90;;;11.20;99.90;;;;;;5036059;28;20218;-67
2021/05/27 01:29:26;;;;;;;1999.90;999.90;;;11.20;99.90;;;;;;5036736;28;20295;-67
2021/05/27 01:31:52;;;;;;;1999.90;999.90;;;11.20;99.90;;;;;;5036391;28;20467;-68
2021/05/27 01:34:17;;;;;;;1999.90;999.90;;;11.10;99.90;;;;;;5034519;28;20183;-67
2021/05/27 01:36:47;;;;;;;1999.90;999.90;;;11.20;99.90;;;;;;5035880;28;20186;-68
2021/05/27 01:39:13;;;;;;;1999.90;999.90;;;11.10;99.90;;;;;;5035874;28;20171;-67
2021/05/27 01:41:39;;;;;;;1999.90;999.90;;;11.10;99.90;;;;;;5035879;28;20438;-67
2021/05/27 01:44:05;;;;;;;1999.90;999.90;;;11.10;99.90;;;;;;5036085;28;20812;-67
2021/05/27 01:46:30;;;;;;;1999.90;999.90;;;11.10;99.90;;;;;;5035506;28;20457;-66
2021/05/27 01:48:56;;;;;;;1999.90;999.90;;;11.10;99.90;;;;;;5036045;28;20579;-67
2021/05/27 01:51:22;;;;;;;1999.90;999.90;;;11.10;99.90;;;;;;5036357;28;20691;-67
2021/05/27 01:53:47;;;;;;;1999.90;999.90;;;11.10;99.90;;;;;;5036516;28;20592;-67
2021/05/27 01:56:13;;;;;;;1999.90;999.90;;;11.10;99.90;;;;;;5035702;28;20821;-67
2021/05/27 01:58:39;;;;;;;1999.90;999.90;;;11.10;99.90;;;;;;5037210;28;20258;-66
2021/05/27 02:01:06;;;;;;;1999.90;999.90;;;11.10;99.90;;;;;;5035939;28;20205;-67
2021/05/27 02:03:31;;;;;;;1999.90;999.90;;;11.10;99.90;;;;;;5036539;28;20507;-67
2021/05/27 02:05:57;;;;;;;1999.90;999.90;;;11.00;99.90;;;;;;5036331;28;20458;-67
2021/05/27 02:08:23;;;;;;;1999.90;999.90;;;11.00;99.90;;;;;;5036304;28;20175;-67
2021/05/27 02:10:48;;;;;;;1999.90;999.90;;;11.00;99.90;;;;;;5036297;28;20197;-67
2021/05/27 02:13:14;;;;;;;1999.90;999.90;;;11.00;99.90;;;;;;5036995;28;20168;-67
2021/05/27 02:15:40;;;;;;;1999.90;999.90;;;11.00;99.90;;;;;;5036109;28;20594;-68
2021/05/27 02:18:06;;;;;;;1999.90;999.90;;;11.00;99.90;;;;;;5036382;28;20267;-67
2021/05/27 02:20:32;;;;;;;1999.90;999.90;;;11.00;99.90;;;;;;5036134;28;20187;-67
2021/05/27 02:22:57;;;;;;;1999.90;999.90;;;10.90;99.90;;;;;;5035973;28;20432;-67
2021/05/27 02:25:23;;;;;;;1999.90;999.90;;;11.00;99.90;;;;;;5034858;28;20458;-67
2021/05/27 02:27:49;;;;;;;1999.90;999.90;;;10.90;99.90;;;;;;5036316;28;20211;-68
2021/05/27 02:30:15;;;;;;;1999.90;999.90;;;10.90;99.90;;;;;;5036164;28;20457;-67
2021/05/27 02:32:41;;;;;;;1999.90;999.90;;;10.90;99.90;;;;;;5035815;28;20171;-68
2021/05/27 02:35:07;;;;;;;1999.90;999.90;;;10.90;99.90;;;;;;5035626;28;20917;-67
2021/05/27 02:37:32;;;;;;;1999.90;999.90;;;10.90;99.90;;;;;;5035950;28;20206;-67
2021/05/27 02:39:58;;;;;;;1999.90;999.90;;;10.90;99.90;;;;;;5036538;28;20421;-67
2021/05/27 02:42:23;;;;;;;1999.90;999.90;;;10.90;99.90;;;;;;5035067;28;20181;-68
2021/05/27 02:44:49;;;;;;;1999.90;999.90;;;10.90;99.90;;;;;;5034806;28;20172;-67
2021/05/27 02:47:15;;;;;;;1999.90;999.90;;;10.90;99.90;;;;;;5035889;28;20199;-67
2021/05/27 02:49:41;;;;;;;1999.90;999.90;;;10.90;99.90;;;;;;5036136;28;20308;-67
2021/05/27 02:52:07;;;;;;;1999.90;999.90;;;11.00;99.90;;;;;;5036053;28;20892;-67
2021/05/27 02:54:32;;;;;;;1999.90;999.90;;;11.00;99.90;;;;;;5036152;28;20782;-67
2021/05/27 02:56:59;;;;;;;1999.90;999.90;;;10.90;99.90;;;;;;5035270;28;20554;-67
2021/05/27 02:59:26;;;;;;;1999.90;999.90;;;10.90;99.90;;;;;;5036320;28;20186;-67
2021/05/27 03:01:52;;;;;;;1999.90;999.90;;;11.00;99.90;;;;;;5035561;28;20418;-67
2021/05/27 03:04:18;;;;;;;1999.90;999.90;;;11.00;99.90;;;;;;5035426;28;20456;-68
2021/05/27 03:06:44;;;;;;;1999.90;999.90;;;11.00;99.90;;;;;;5034573;28;20453;-68
2021/05/27 03:09:09;;;;;;;1999.90;999.90;;;11.00;99.90;;;;;;5035150;28;20413;-67
2021/05/27 03:11:35;;;;;;;1999.90;999.90;;;10.90;99.90;;;;;;5035395;28;20184;-67
2021/05/27 03:14:00;;;;;;;1999.90;999.90;;;11.00;99.90;;;;;;5034636;28;20175;-68
2021/05/27 03:16:26;;;;;;;1999.90;999.90;;;11.00;99.90;;;;;;5034938;28;20202;-67
2021/05/27 03:18:51;;;;;;;1999.90;999.90;;;11.00;99.90;;;;;;5034746;28;20695;-67
2021/05/27 03:21:17;;;;;;;1999.90;999.90;;;11.00;99.90;;;;;;5034695;28;20199;-66
2021/05/27 03:23:43;;;;;;;1999.90;999.90;;;11.00;99.90;;;;;;5035740;28;20202;-67
2021/05/27 03:26:08;;;;;;;1999.90;999.90;;;11.00;99.90;;;;;;5035715;28;20554;-68
2021/05/27 03:28:34;;;;;;;1999.90;999.90;;;11.00;99.90;;;;;;5035450;28;20592;-68
2021/05/27 03:30:59;;;;;;;1999.90;999.90;;;11.00;99.90;;;;;;5035056;28;20577;-66
2021/05/27 03:33:25;;;;;;;1999.90;999.90;;;11.00;99.90;;;;;;5032030;28;20203;-68
2021/05/27 03:35:51;;;;;;;1999.90;999.90;;;11.00;99.90;;;;;;5031740;28;20183;-66
2021/05/27 03:38:16;;;;;;;1999.90;999.90;;;11.00;99.90;;;;;;5031916;28;20533;-66
2021/05/27 03:40:42;;;;;;;1999.90;999.90;;;11.00;99.90;;;;;;5031901;28;20231;-67
2021/05/27 03:43:08;;;;;;;1999.90;999.90;;;11.00;99.90;;;;;;5031856;28;20179;-67
2021/05/27 03:45:34;;;;;;;1999.90;999.90;;;11.00;99.90;;;;;;5031695;28;20465;-66
2021/05/27 03:48:01;;;;;;;1999.90;999.90;;;11.00;99.90;;;;;;5031783;28;20624;-67
2021/05/27 03:50:29;;;;;;;1999.90;999.90;;;11.00;99.90;;;;;;5031941;28;20427;-67
2021/05/27 03:52:55;;;;;;;1999.90;999.90;;;11.00;99.90;;;;;;5031917;28;20425;-67
2021/05/27 03:55:22;;;;;;;1999.90;999.90;;;11.00;99.90;;;;;;5031615;28;20418;-66
2021/05/27 03:57:48;;;;;;;1999.90;999.90;;;11.00;99.90;;;;;;5034960;28;20422;-66
2021/05/27 04:03:02;;;;;;;1999.90;999.90;;;11.00;99.90;;;;;;5035986;28;20781;-67
2021/05/27 04:08:12;;;;;;;1999.90;999.90;;;10.90;99.90;;;;;;5035905;28;20413;-66
2021/05/27 04:10:38;;;;;;;1999.90;999.90;;;11.00;99.90;;;;;;5035464;28;20506;-66
2021/05/27 04:13:03;;;;;;;1999.90;999.90;;;11.00;99.90;;;;;;5035481;28;20500;-66
2021/05/27 04:15:32;;;;;;;1999.90;999.90;;;11.10;99.90;;;;;;5035254;28;20184;-67
2021/05/27 04:18:05;;;;;;;1999.90;999.90;;;11.10;99.90;;;;;;5035648;28;20554;-67
2021/05/27 04:20:34;;;;;;;1999.90;999.90;;;11.10;99.90;;;;;;5035437;28;20438;-68
2021/05/27 04:23:02;;;;;;;1999.90;999.90;;;11.00;99.90;;;;;;5035278;28;20408;-67
2021/05/27 04:25:28;;;;;;;1999.90;999.90;;;11.00;99.90;;;;;;5034879;28;20454;-67
2021/05/27 04:27:56;;;;;;;1999.90;999.90;;;11.10;99.90;;;;;;5035248;28;20422;-66
2021/05/27 04:30:23;;;;;;;1999.90;999.90;;;11.10;99.90;;;;;;5035029;28;20458;-66
2021/05/27 04:33:08;;;;;;;1999.90;999.90;;;11.10;99.90;;;;;;5035265;28;20457;-68
2021/05/27 04:35:41;;;;;;;1999.90;999.90;;;11.10;99.90;;;;;;5034822;28;20413;-67
2021/05/27 04:38:24;;;;;;;1999.90;999.90;;;11.10;99.90;;;;;;5035066;28;20509;-66
2021/05/27 04:40:50;;;;;;;1999.90;999.90;;;11.00;99.90;;;;;;5034945;28;20555;-67
2021/05/27 04:43:17;;;;;;;1999.90;999.90;;;11.00;99.90;;;;;;5034962;28;20442;-67
2021/05/27 04:45:43;;;;;;;1999.90;999.90;;;11.00;99.90;;;;;;5034607;28;20199;-66
2021/05/27 04:48:10;;;;;;;1999.90;999.90;;;11.00;99.90;;;;;;5034831;28;20452;-66
2021/05/27 04:50:37;;;;;;;1999.90;999.90;;;11.00;99.90;;;;;;5034945;28;20192;-67
2021/05/27 04:53:04;;;;;;;1999.90;999.90;;;11.00;99.90;;;;;;5034780;28;20904;-66
2021/05/27 04:55:30;;;;;;;1999.90;999.90;;;11.10;99.90;;;;;;5034629;28;20807;-67
2021/05/27 04:57:56;;;;;;;1999.90;999.90;;;11.10;99.90;;;;;;5034670;28;20503;-68
2021/05/27 05:00:23;;;;;;;1999.90;999.90;;;11.10;99.90;;;;;;5034592;28;20439;-67
2021/05/27 05:02:53;;;;;;;1999.90;999.90;;;11.10;99.90;;;;;;5034604;28;20764;-66
2021/05/27 05:05:20;;;;;;;1999.90;999.90;;;11.10;99.90;;;;;;5034193;28;20484;-66
2021/05/27 05:07:46;;;;;;;1999.90;999.90;;;11.10;99.90;;;;;;5034384;28;20837;-67
2021/05/27 05:10:13;;;;;;;1999.90;999.90;;;11.10;99.90;;;;;;5034631;28;20804;-66
2021/05/27 05:12:51;;;;;;;1999.90;999.90;;;11.10;99.90;;;;;;5034368;28;20897;-67
2021/05/27 05:15:34;;;;;;;1999.90;999.90;;;11.20;99.90;;;;;;5034035;28;20497;-66
2021/05/27 05:18:08;;;;;;;1999.90;999.90;;;11.10;99.90;;;;;;5034344;28;20444;-66
2021/05/27 05:20:45;;;;;;;1999.90;999.90;;;11.10;99.90;;;;;;5034279;28;20427;-66
2021/05/27 05:23:11;;;;;;;1999.90;999.90;;;11.10;99.90;;;;;;5034271;28;20463;-68
2021/05/27 05:25:38;;;;;;;1999.90;999.90;;;11.20;99.90;;;;;;5033813;28;20959;-67
2021/05/27 05:28:05;;;;;;;1999.90;999.90;;;11.20;99.90;;;;;;5034190;28;20406;-66
2021/05/27 05:30:31;;;;;;;1999.90;999.90;;;11.20;99.90;;;;;;5034093;28;20456;-68
2021/05/27 05:32:58;;;;;;;1999.90;999.90;;;11.20;99.90;;;;;;5034063;28;20777;-66
2021/05/27 05:35:24;;;;;;;1999.90;999.90;;;11.10;99.90;;;;;;5033757;28;20413;-66
2021/05/27 05:37:50;;;;;;;1999.90;999.90;;;11.20;99.90;;;;;;5033998;28;20413;-66
2021/05/27 05:40:18;;;;;;;1999.90;999.90;;;11.20;99.90;;;;;;5033736;28;20572;-67
2021/05/27 05:42:44;;;;;;;1999.90;999.90;;;11.20;99.90;;;;;;5034090;28;20750;-66
2021/05/27 05:45:12;;;;;;;1999.90;999.90;;;11.20;99.90;;;;;;5033361;28;20414;-66
2021/05/27 05:47:38;;;;;;;1999.90;999.90;;;11.30;99.90;;;;;;5033793;28;20403;-66
2021/05/27 05:50:05;;;;;;;1999.90;999.90;;;11.30;99.90;;;;;;5033602;28;20480;-66
2021/05/27 05:52:31;;;;;;;1999.90;999.90;;;11.30;99.90;;;;;;5033688;28;20434;-66
2021/05/27 05:54:57;;;;;;;1999.90;999.90;;;11.30;99.90;;;;;;5033293;28;20529;-66
2021/05/27 05:57:23;;;;;;;1999.90;999.90;;;11.40;99.90;;;;;;5033521;28;20438;-65
2021/05/27 05:59:49;;;;;;;1999.90;999.90;;;11.40;99.90;;;;;;5033479;28;20237;-66
2021/05/27 06:02:15;;;;;;;1999.90;999.90;;;11.40;99.90;;;;;;5033523;28;20414;-66
2021/05/27 06:04:40;;;;;;;1999.90;999.90;;;11.40;99.90;;;;;;5033509;28;20179;-66
2021/05/27 06:07:06;;;;;;;1999.90;999.90;;;11.40;99.90;;;;;;5033129;28;20216;-66
2021/05/27 06:09:31;;;;;;;1999.90;999.90;;;11.30;99.90;;;;;;5033110;28;20202;-68
2021/05/27 06:11:57;;;;;;;1999.90;999.90;;;11.40;99.90;;;;;;5033330;28;20176;-66
2021/05/27 06:14:23;;;;;;;1999.90;999.90;;;11.40;99.90;;;;;;5033406;28;20531;-66
2021/05/27 06:16:48;;;;;;;1999.90;999.90;;;11.40;99.90;;;;;;5032953;28;20225;-66
2021/05/27 06:19:14;;;;;;;1999.90;999.90;;;11.40;99.90;;;;;;5032437;28;20184;-66
2021/05/27 06:21:41;;;;;;;1999.90;999.90;;;11.30;99.90;;;;;;5033076;28;20749;-67
2021/05/27 06:24:08;;;;;;;1999.90;999.90;;;11.20;99.90;;;;;;5033098;28;20440;-66
2021/05/27 06:26:35;;;;;;;1999.90;999.90;;;11.20;99.90;;;;;;5032637;28;20560;-66
2021/05/27 06:29:00;;;;;;;1999.90;999.90;;;11.30;99.90;;;;;;5032922;28;20414;-67
2021/05/27 06:31:26;;;;;;;1999.90;999.90;;;11.20;99.90;;;;;;5032877;28;20466;-66
2021/05/27 06:33:52;;;;;;;1999.90;999.90;;;11.20;99.90;;;;;;5032947;28;20170;-66
2021/05/27 06:36:17;;;;;;;1999.90;999.90;;;11.10;99.90;;;;;;5032820;28;20183;-65
2021/05/27 06:38:43;;;;;;;1999.90;999.90;;;11.10;99.90;;;;;;5032723;28;20176;-66
2021/05/27 06:41:09;;;;;;;1999.90;999.90;;;11.00;99.90;;;;;;5032851;28;20198;-67
2021/05/27 06:43:35;;;;;;;1999.90;999.90;;;11.00;99.90;;;;;;5032885;28;20599;-69
2021/05/27 06:46:00;;;;;;;1999.90;999.90;;;11.00;99.90;;;;;;5032321;28;20465;-66
2021/05/27 06:48:26;;;;;;;1999.90;999.90;;;11.00;99.90;;;;;;5032623;28;20412;-66
2021/05/27 06:50:52;;;;;;;1999.90;999.90;;;11.00;99.90;;;;;;5032575;28;20536;-66
2021/05/27 06:53:18;;;;;;;1999.90;999.90;;;11.00;99.90;;;;;;5032490;28;20178;-67
2021/05/27 06:55:45;;;;;;;1999.90;999.90;;;11.00;99.90;;;;;;5032244;28;20179;-66
2021/05/27 06:58:11;;;;;;;1999.90;999.90;;;11.10;99.90;;;;;;5032462;28;20517;-66
2021/05/27 07:00:37;;;;;;;1999.90;999.90;;;11.10;99.90;;;;;;5032410;28;20458;-66
2021/05/27 07:03:04;;;;;;;1999.90;999.90;;;11.10;99.90;;;;;;5032417;28;20420;-66
2021/05/27 07:05:30;;;;;;;1999.90;999.90;;;11.20;99.90;;;;;;5032083;28;20997;-66
2021/05/27 07:07:56;;;;;;;1999.90;999.90;;;11.20;99.90;;;;;;5032251;28;20947;-67
2021/05/27 07:10:22;;;;;;;1999.90;999.90;;;11.30;99.90;;;;;;5032078;28;20433;-66
2021/05/27 07:12:50;;;;;;;1999.90;999.90;;;11.20;99.90;;;;;;5032428;28;20929;-66
2021/05/27 07:15:17;;;;;;;1999.90;999.90;;;11.30;99.90;;;;;;5032028;28;20777;-66
2021/05/27 07:17:43;;;;;;;1999.90;999.90;;;11.20;99.90;;;;;;5032302;28;20780;-66
2021/05/27 07:20:10;;;;;;;1999.90;999.90;;;11.30;99.90;;;;;;5032101;28;20439;-66
2021/05/27 07:22:35;;;;;;;1999.90;999.90;;;11.30;99.90;;;;;;5031957;28;20179;-66
2021/05/27 07:25:01;;;;;;;1999.90;999.90;;;11.40;99.90;;;;;;5031697;28;20774;-66
2021/05/27 07:27:26;;;;;;;1999.90;999.90;;;11.40;99.90;;;;;;5030834;28;20211;-66
2021/05/27 07:29:52;;;;;;;1999.90;999.90;;;11.40;99.90;;;;;;5031803;28;20214;-66
2021/05/27 07:32:18;;;;;;;1999.90;999.90;;;11.40;99.90;;;;;;5032061;28;20182;-67
2021/05/27 07:34:46;;;;;;;1999.90;999.90;;;11.40;99.90;;;;;;5031779;28;20665;-66
2021/05/27 07:37:12;;;;;;;1999.90;999.90;;;11.40;99.90;;;;;;5031981;28;20200;-66
2021/05/27 07:39:38;;;;;;;1999.90;999.90;;;11.40;99.90;;;;;;5031762;28;20419;-67
2021/05/27 07:42:06;;;;;;;1999.90;999.90;;;11.60;99.90;;;;;;5031964;28;20417;-66
2021/05/27 07:44:33;;;;;;;1999.90;999.90;;;11.70;99.90;;;;;;5031832;28;20176;-66
2021/05/27 07:46:59;;;;;;;1999.90;999.90;;;11.70;99.90;;;;;;5031518;28;20465;-66
2021/05/27 07:49:25;;;;;;;1999.90;999.90;;;11.70;99.90;;;;;;5031791;28;20918;-67
2021/05/27 07:51:51;;;;;;;1999.90;999.90;;;11.80;99.90;;;;;;5031821;28;20414;-66
2021/05/27 07:54:16;;;;;;;1999.90;999.90;;;11.80;99.90;;;;;;5031932;28;20233;-66
2021/05/27 07:56:42;;;;;;;1999.90;999.90;;;11.80;99.90;;;;;;5031572;28;20712;-67
2021/05/27 07:59:08;;;;;;;1999.90;999.90;;;11.80;99.90;;;;;;5031767;28;20172;-66
2021/05/27 08:01:34;;;;;;;1999.90;999.90;;;11.80;99.90;;;;;;5031617;28;20200;-67
2021/05/27 08:04:00;;;;;;;1999.90;999.90;;;11.80;99.90;;;;;;5031726;28;20422;-66
2021/05/27 08:06:26;;;;;;;1999.90;999.90;;;11.90;99.90;;;;;;5031309;28;20458;-66
2021/05/27 08:08:51;;;;;;;1999.90;999.90;;;12.00;99.90;;;;;;5031558;28;20252;-66
2021/05/27 08:11:17;;;;;;;1999.90;999.90;;;12.00;99.90;;;;;;5030929;28;20203;-67
2021/05/27 08:13:42;;;;;;;1999.90;999.90;;;12.10;99.90;;;;;;5031325;28;20581;-66
2021/05/27 08:16:08;;;;;;;1999.90;999.90;;;12.00;99.90;;;;;;5031264;28;20183;-67
2021/05/27 08:18:34;;;;;;;1999.90;999.90;;;12.00;99.90;;;;;;5031455;28;20234;-66
2021/05/27 08:20:59;;;;;;;1999.90;999.90;;;11.90;99.90;;;;;;5031479;28;20615;-66
2021/05/27 08:23:25;;;;;;;1999.90;999.90;;;11.90;99.90;;;;;;5031616;28;20172;-66
2021/05/27 08:25:50;;;;;;;1999.90;999.90;;;11.80;99.90;;;;;;5031138;28;20286;-66
2021/05/27 08:28:16;;;;;;;1999.90;999.90;;;11.80;99.90;;;;;;5031518;28;20182;-66
2021/05/27 08:30:42;;;;;;;1999.90;999.90;;;11.90;99.90;;;;;;5031239;28;20207;-67
2021/05/27 08:33:07;;;;;;;1999.90;999.90;;;11.90;99.90;;;;;;5031368;28;20182;-66
2021/05/27 08:35:33;;;;;;;1999.90;999.90;;;11.90;99.90;;;;;;5031313;28;20183;-66
2021/05/27 08:37:59;;;;;;;1999.90;999.90;;;11.90;99.90;;;;;;5031473;28;20641;-66
2021/05/27 08:40:24;;;;;;;1999.90;999.90;;;12.00;99.90;;;;;;5031226;28;20196;-66
2021/05/27 08:42:51;;;;;;;1999.90;999.90;;;12.00;99.90;;;;;;5032898;28;20177;-66
2021/05/27 08:45:19;;;;;;;1999.90;999.90;;;12.00;99.90;;;;;;5034615;28;20229;-66
2021/05/27 08:47:45;;;;;;;1999.90;999.90;;;12.00;99.90;;;;;;5034865;28;20904;-66
2021/05/27 08:50:10;;;;;;;1999.90;999.90;;;11.90;99.90;;;;;;5034600;28;20426;-66
2021/05/27 08:52:36;;;;;;;1999.90;999.90;;;11.90;99.90;;;;;;5034912;28;20203;-67
2021/05/27 08:55:03;;;;;;;1999.90;999.90;;;12.00;99.90;;;;;;5034663;28;20181;-66
2021/05/27 08:57:29;;;;;;;1999.90;999.90;;;12.00;99.90;;;;;;5034756;28;20217;-67
2021/05/27 08:59:55;;;;;;;1999.90;999.90;;;12.00;99.90;;;;;;5034622;28;20429;-66
2021/05/27 09:02:21;;;;;;;1999.90;999.90;;;12.10;99.90;;;;;;5034620;28;20772;-66
2021/05/27 09:04:46;;;;;;;1999.90;999.90;;;12.10;99.90;;;;;;5034530;28;20181;-67
2021/05/27 09:07:12;;;;;;;1999.90;999.90;;;12.20;99.90;;;;;;5034435;28;20206;-66
2021/05/27 09:09:49;;;;;;;1999.90;999.90;;;12.20;99.90;;;;;;5034478;28;20537;-66
2021/05/27 09:12:31;;;;;;;1999.90;999.90;;;12.20;99.90;;;;;;5034542;28;20589;-67
2021/05/27 09:14:58;;;;;;;1999.90;999.90;;;12.20;99.90;;;;;;5034088;28;20434;-66
2021/05/27 09:17:24;;;;;;;1999.90;999.90;;;12.10;99.90;;;;;;5034395;28;20410;-66
2021/05/27 09:20:12;;;;;;;1999.90;999.90;;;12.10;99.90;;;;;;5034380;28;20513;-66
2021/05/27 09:22:39;;;;;;;1999.90;999.90;;;12.10;99.90;;;;;;5034420;28;20413;-66
2021/05/27 09:25:06;;;;;;;1999.90;999.90;;;12.10;99.90;;;;;;5034000;28;20406;-66
2021/05/27 09:27:52;;;;;;;1999.90;999.90;;;12.00;99.90;;;;;;5033977;28;20459;-66
2021/05/27 09:30:18;;;;;;;1999.90;999.90;;;12.00;99.90;;;;;;5035512;28;21046;-68
2021/05/27 09:32:46;;;;;;;1999.90;999.90;;;11.90;99.90;;;;;;5037906;28;20458;-68
2021/05/27 09:35:12;;;;;;;1999.90;999.90;;;11.90;99.90;;;;;;5038700;28;20413;-68
2021/05/27 09:37:44;;;;;;;1999.90;999.90;;;11.90;99.90;;;;;;5039941;28;20407;-68
2021/05/27 09:40:10;;;;;;;1999.90;999.90;;;11.90;99.90;;;;;;5072257;28;20525;-68
2021/05/27 09:42:49;;;;;;;1999.90;999.90;;;11.90;99.90;;;;;;5039287;28;20854;-69
2021/05/27 09:45:16;;;;;;;1999.90;999.90;;;12.00;99.90;;;;;;5039730;28;20548;-68
2021/05/27 09:47:42;;;;;;;1999.90;999.90;;;12.00;99.90;;;;;;5039131;28;20927;-67
2021/05/27 09:50:08;;;;;;;1999.90;999.90;;;12.00;99.90;;;;;;5039475;28;20427;-67
2021/05/27 09:52:41;;;;;;;1999.90;999.90;;;12.00;99.90;;;;;;5039547;28;21093;-68
2021/05/27 09:55:15;;;;;;;1999.90;999.90;;;12.00;99.90;;;;;;5037159;28;20404;-68
2021/05/27 09:57:43;;;;;;;1999.90;999.90;;;12.20;99.90;;;;;;5037296;28;20411;-68
2021/05/27 10:00:28;;;;;;;1999.90;999.90;;;12.40;99.90;;;;;;5037780;28;20485;-68
2021/05/27 10:02:54;;;;;;;1999.90;999.90;;;12.50;99.90;;;;;;5037241;28;20403;-69
2021/05/27 10:05:21;;;;;;;1999.90;999.90;;;12.40;99.90;;;;;;5035852;28;20398;-68
2021/05/27 10:07:51;;;;;;;1999.90;999.90;;;12.40;99.90;;;;;;5037243;28;20402;-68
2021/05/27 10:10:21;;;;;;;1999.90;999.90;;;12.30;99.90;;;;;;5035679;28;20422;-69
2021/05/27 10:12:50;;;;;;;1999.90;999.90;;;12.20;99.90;;;;;;5034231;28;20414;-68
2021/05/27 10:15:19;;;;;;;1999.90;999.90;;;12.00;99.90;;;;;;5035094;28;20469;-69
2021/05/27 10:17:49;;;;;;;1999.90;999.90;;;12.00;99.90;;;;;;5034577;28;20399;-68
2021/05/27 10:20:20;;;;;;;1999.90;999.90;;;12.00;99.90;;;;;;5034167;28;20426;-68
2021/05/27 10:22:46;;;;;;;1999.90;999.90;;;11.90;99.90;;;;;;5034133;28;20791;-69
2021/05/27 10:25:15;;;;;;;1999.90;999.90;;;11.80;99.90;;;;;;5033937;28;20406;-68
2021/05/27 10:27:42;;;;;;;1999.90;999.90;;;11.80;99.90;;;;;;5034123;28;20417;-68
2021/05/27 10:30:09;;;;;;;1999.90;999.90;;;11.80;99.90;;;;;;5034174;28;20449;-69
2021/05/27 10:32:45;;;;;;;1999.90;999.90;;;11.80;99.90;;;;;;5034622;28;20395;-68
2021/05/27 10:35:12;;;;;;;1999.90;999.90;;;11.90;99.90;;;;;;5026532;28;20443;-70
2021/05/27 10:37:37;;;;;;;1999.90;999.90;;;11.90;99.90;;;;;;5031841;28;20836;-69
2021/05/27 10:40:15;;;;;;;1999.90;999.90;;;11.80;99.90;;;;;;5034909;28;20434;-67
2021/05/27 10:42:56;;;;;;;1999.90;999.90;;;11.80;99.90;;;;;;5031560;28;20167;-70
2021/05/27 10:45:25;;;;;;;1999.90;999.90;;;11.70;99.90;;;;;;5034125;28;20403;-69
2021/05/27 10:48:13;;;;;;;1999.90;999.90;;;11.70;99.90;;;;;;5033994;28;20528;-70
2021/05/27 10:56:02;;;;;;;1999.90;999.90;;;12.00;99.90;;;;;;5029755;28;20394;-69
2021/05/27 10:58:46;;;;;;;1999.90;999.90;;;12.10;99.90;;;;;;5030907;28;20924;-67
2021/05/27 11:01:40;;;;;;;1999.90;999.90;;;12.10;99.90;;;;;;5030649;28;20853;-69
2021/05/27 11:04:07;;;;;;;1999.90;999.90;;;12.10;99.90;;;;;;5030577;28;20417;-67
2021/05/27 11:06:44;;;;;;;1999.90;999.90;;;12.10;99.90;;;;;;5044358;28;20548;-66
2021/05/27 11:09:25;;;;;;;1999.90;999.90;;;12.00;99.90;;;;;;5041868;28;20411;-68
2021/05/27 11:12:00;;;;;;;1999.90;999.90;;;12.00;99.90;;;;;;5033120;28;20462;-69
2021/05/27 11:14:34;;;;;;;1999.90;999.90;;;12.00;99.90;;;;;;5034209;28;20410;-69
2021/05/27 11:19:49;;;;;;;1999.90;999.90;;;11.80;99.90;;;;;;5034560;28;20494;-68
2021/05/27 11:25:14;;;;;;;1999.90;999.90;;;12.00;99.90;;;;;;5019232;28;20419;-69
2021/05/27 11:27:53;;;;;;;1999.90;999.90;;;12.10;99.90;;;;;;5029575;28;20422;-69
2021/05/27 11:30:22;;;;;;;1999.90;999.90;;;12.30;99.90;;;;;;5011267;28;20456;-68
2021/05/27 11:32:51;;;;;;;1999.90;999.90;;;12.30;99.90;;;;;;5010430;28;20407;-68
2021/05/27 11:35:19;;;;;;;1999.90;999.90;;;12.40;99.90;;;;;;5009729;28;20416;-69
2021/05/27 11:37:45;;;;;;;1999.90;999.90;;;12.40;99.90;;;;;;5010480;28;20411;-68
2021/05/27 11:40:14;;;;;;;1999.90;999.90;;;12.50;99.90;;;;;;5010377;28;20493;-68
2021/05/27 11:42:45;;;;;;;1999.90;999.90;;;12.70;99.90;;;;;;5010100;28;20412;-67
2021/05/27 11:45:11;;;;;;;1999.90;999.90;;;12.70;99.90;;;;;;5010101;28;20439;-65
2021/05/27 11:47:36;;;;;;;1999.90;999.90;;;12.70;99.90;;;;;;5010170;28;20487;-67
2021/05/27 11:50:10;;;;;;;1999.90;999.90;;;12.80;99.90;;;;;;5010034;28;20285;-68
2021/05/27 11:52:37;;;;;;;1999.90;999.90;;;12.90;99.90;;;;;;5010328;28;20651;-68
2021/05/27 11:55:04;;;;;;;1999.90;999.90;;;13.00;99.90;;;;;;5009648;28;20504;-66
2021/05/27 11:57:48;;;;;;;1999.90;999.90;;;13.10;99.90;;;;;;5009976;28;20412;-68
2021/05/27 12:00:16;;;;;;;1999.90;999.90;;;13.20;99.90;;;;;;5010151;28;20435;-68
2021/05/27 12:02:45;;;;;;;1999.90;999.90;;;13.20;99.90;;;;;;5009958;28;20506;-67
2021/05/27 12:05:30;;;;;;;1999.90;999.90;;;13.20;99.90;;;;;;5009942;28;20527;-68
2021/05/27 12:08:13;;;;;;;1999.90;999.90;;;13.20;99.90;;;;;;5010137;28;20442;-68
2021/05/27 12:10:47;;;;;;;1999.90;999.90;;;13.20;99.90;;;;;;5009787;28;20415;-68
2021/05/27 12:13:18;;;;;;;1999.90;999.90;;;13.40;99.90;;;;;;5010329;28;20782;-68
2021/05/27 12:15:44;;;;;;;1999.90;999.90;;;13.50;99.90;;;;;;5010339;28;20408;-68
2021/05/27 12:18:15;;;;;;;1999.90;999.90;;;13.60;99.90;;;;;;5011598;28;20459;-69
2021/05/27 12:20:42;;;;;;;1999.90;999.90;;;13.70;99.90;;;;;;5013664;28;20426;-70